Terminal Aerodrome Forecast
Issued by NWS

Home | Current Version | Previous Version | Text Only | Print | Product List | Glossary On
Versions: 1 2 3 4 5 6 7 8 9 10 11 12 13 14 15 16 17 18 19
000
FTUS41 KILN 312338
TAFLUK
TAF
KLUK 312338Z 0100/0124 26009KT P6SM FEW070
     FM010900 00000KT 2SM BR SKC
     FM011100 00000KT P6SM SKC
     FM011700 28009KT P6SM SCT060
     FM012300 29005KT P6SM SCT250=

USA.gov is the U.S. government's official web portal to all federal, state and local government web resources and services.